sensor_id;sensor_type;location;lat;lon;timestamp;P1;P2;P0
79272;PMS5003;68718;-19.302;146.788;2023-04-15T00:00:56;5;5;
79272;PMS5003;68718;-19.302;146.788;2023-04-15T00:03:22;5;5;
79272;PMS5003;68718;-19.302;146.788;2023-04-15T00:05:46;9;8;
79272;PMS5003;68718;-19.302;146.788;2023-04-15T00:08:12;4;4;
79272;PMS5003;68718;-19.302;146.788;2023-04-15T00:10:37;4;4;
79272;PMS5003;68718;-19.302;146.788;2023-04-15T00:13:02;7;7;
79272;PMS5003;68718;-19.302;146.788;2023-04-15T00:15:28;6;6;
79272;PMS5003;68718;-19.302;146.788;2023-04-15T00:17:53;5;5;
79272;PMS5003;68718;-19.302;146.788;2023-04-15T00:20:19;6;6;
79272;PMS5003;68718;-19.302;146.788;2023-04-15T00:22:44;6;6;
79272;PMS5003;68718;-19.302;146.788;2023-04-15T00:25:09;5;5;
79272;PMS5003;68718;-19.302;146.788;2023-04-15T00:27:35;5;5;
79272;PMS5003;68718;-19.302;146.788;2023-04-15T00:30:00;5;5;
79272;PMS5003;68718;-19.302;146.788;2023-04-15T00:32:26;4;4;
79272;PMS5003;68718;-19.302;146.788;2023-04-15T00:34:51;5;5;
79272;PMS5003;68718;-19.302;146.788;2023-04-15T00:37:16;5;4;
79272;PMS5003;68718;-19.302;146.788;2023-04-15T00:39:41;5;5;
79272;PMS5003;68718;-19.302;146.788;2023-04-15T00:42:07;5;4;
79272;PMS5003;68718;-19.302;146.788;2023-04-15T00:44:32;5;5;
79272;PMS5003;68718;-19.302;146.788;2023-04-15T00:46:59;6;6;
79272;PMS5003;68718;-19.302;146.788;2023-04-15T00:49:23;5;4;
79272;PMS5003;68718;-19.302;146.788;2023-04-15T00:51:48;4;4;
79272;PMS5003;68718;-19.302;146.788;2023-04-15T00:54:14;5;5;
79272;PMS5003;68718;-19.302;146.788;2023-04-15T00:56:39;4;4;
79272;PMS5003;68718;-19.302;146.788;2023-04-15T00:59:05;3;3;
79272;PMS5003;68718;-19.302;146.788;2023-04-15T01:01:30;5;5;
79272;PMS5003;68718;-19.302;146.788;2023-04-15T01:03:56;6;6;
79272;PMS5003;68718;-19.302;146.788;2023-04-15T01:06:21;6;5;
79272;PMS5003;68718;-19.302;146.788;2023-04-15T01:08:46;6;5;
79272;PMS5003;68718;-19.302;146.788;2023-04-15T01:11:12;4;4;
79272;PMS5003;68718;-19.302;146.788;2023-04-15T01:13:37;5;5;
79272;PMS5003;68718;-19.302;146.788;2023-04-15T01:16:02;6;6;
79272;PMS5003;68718;-19.302;146.788;2023-04-15T01:18:28;4;4;
79272;PMS5003;68718;-19.302;146.788;2023-04-15T01:20:53;4;4;
79272;PMS5003;68718;-19.302;146.788;2023-04-15T01:23:18;5;5;
79272;PMS5003;68718;-19.302;146.788;2023-04-15T01:25:44;6;5;
79272;PMS5003;68718;-19.302;146.788;2023-04-15T01:28:09;7;7;
79272;PMS5003;68718;-19.302;146.788;2023-04-15T01:30:35;4;3;
79272;PMS5003;68718;-19.302;146.788;2023-04-15T01:33:00;4;3;
79272;PMS5003;68718;-19.302;146.788;2023-04-15T01:35:26;4;4;
79272;PMS5003;68718;-19.302;146.788;2023-04-15T01:37:50;7;6;
79272;PMS5003;68718;-19.302;146.788;2023-04-15T01:40:16;5;5;
79272;PMS5003;68718;-19.302;146.788;2023-04-15T01:42:41;6;6;
79272;PMS5003;68718;-19.302;146.788;2023-04-15T01:45:07;6;5;
79272;PMS5003;68718;-19.302;146.788;2023-04-15T01:47:32;6;5;
79272;PMS5003;68718;-19.302;146.788;2023-04-15T01:49:57;4;4;
79272;PMS5003;68718;-19.302;146.788;2023-04-15T01:52:22;4;4;
79272;PMS5003;68718;-19.302;146.788;2023-04-15T01:54:48;6;5;
79272;PMS5003;68718;-19.302;146.788;2023-04-15T01:57:13;5;5;
79272;PMS5003;68718;-19.302;146.788;2023-04-15T01:59:39;5;5;
79272;PMS5003;68718;-19.302;146.788;2023-04-15T02:02:04;5;5;
79272;PMS5003;68718;-19.302;146.788;2023-04-15T02:04:30;5;5;
79272;PMS5003;68718;-19.302;146.788;2023-04-15T02:06:55;5;5;
79272;PMS5003;68718;-19.302;146.788;2023-04-15T02:09:20;4;4;
79272;PMS5003;68718;-19.302;146.788;2023-04-15T02:11:46;5;5;
79272;PMS5003;68718;-19.302;146.788;2023-04-15T02:14:11;6;6;
79272;PMS5003;68718;-19.302;146.788;2023-04-15T02:16:37;4;4;
79272;PMS5003;68718;-19.302;146.788;2023-04-15T02:19:02;4;4;
79272;PMS5003;68718;-19.302;146.788;2023-04-15T02:21:27;6;5;
79272;PMS5003;68718;-19.302;146.788;2023-04-15T02:23:53;5;5;
79272;PMS5003;68718;-19.302;146.788;2023-04-15T02:26:18;6;6;
79272;PMS5003;68718;-19.302;146.788;2023-04-15T02:28:43;7;7;
79272;PMS5003;68718;-19.302;146.788;2023-04-15T02:31:09;8;7;
79272;PMS5003;68718;-19.302;146.788;2023-04-15T02:33:34;6;6;
79272;PMS5003;68718;-19.302;146.788;2023-04-15T02:36:00;5;5;
79272;PMS5003;68718;-19.302;146.788;2023-04-15T02:38:25;5;5;
79272;PMS5003;68718;-19.302;146.788;2023-04-15T02:40:50;7;7;
79272;PMS5003;68718;-19.302;146.788;2023-04-15T02:43:16;7;6;
79272;PMS5003;68718;-19.302;146.788;2023-04-15T02:45:41;7;7;
79272;PMS5003;68718;-19.302;146.788;2023-04-15T02:48:07;9;8;
79272;PMS5003;68718;-19.302;146.788;2023-04-15T02:50:32;7;7;
79272;PMS5003;68718;-19.302;146.788;2023-04-15T02:52:57;10;10;
79272;PMS5003;68718;-19.302;146.788;2023-04-15T02:55:23;10;9;
79272;PMS5003;68718;-19.302;146.788;2023-04-15T02:57:48;10;10;
79272;PMS5003;68718;-19.302;146.788;2023-04-15T03:00:14;10;9;
79272;PMS5003;68718;-19.302;146.788;2023-04-15T03:02:39;14;14;
79272;PMS5003;68718;-19.302;146.788;2023-04-15T03:05:05;13;13;
79272;PMS5003;68718;-19.302;146.788;2023-04-15T03:07:29;19;19;
79272;PMS5003;68718;-19.302;146.788;2023-04-15T03:09:55;11;11;
79272;PMS5003;68718;-19.302;146.788;2023-04-15T03:12:21;13;13;
79272;PMS5003;68718;-19.302;146.788;2023-04-15T03:14:45;10;10;
79272;PMS5003;68718;-19.302;146.788;2023-04-15T03:17:11;11;11;
79272;PMS5003;68718;-19.302;146.788;2023-04-15T03:19:36;11;10;
79272;PMS5003;68718;-19.302;146.788;2023-04-15T03:22:01;12;12;
79272;PMS5003;68718;-19.302;146.788;2023-04-15T03:24:27;12;12;
79272;PMS5003;68718;-19.302;146.788;2023-04-15T03:26:52;13;12;
79272;PMS5003;68718;-19.302;146.788;2023-04-15T03:29:17;13;13;
79272;PMS5003;68718;-19.302;146.788;2023-04-15T03:31:43;11;11;
79272;PMS5003;68718;-19.302;146.788;2023-04-15T03:34:08;11;10;
79272;PMS5003;68718;-19.302;146.788;2023-04-15T03:36:34;11;11;
79272;PMS5003;68718;-19.302;146.788;2023-04-15T03:38:59;12;12;
79272;PMS5003;68718;-19.302;146.788;2023-04-15T03:41:24;12;11;
79272;PMS5003;68718;-19.302;146.788;2023-04-15T03:43:49;12;12;
79272;PMS5003;68718;-19.302;146.788;2023-04-15T03:46:14;10;10;
79272;PMS5003;68718;-19.302;146.788;2023-04-15T03:48:40;11;11;
79272;PMS5003;68718;-19.302;146.788;2023-04-15T03:51:05;13;12;
79272;PMS5003;68718;-19.302;146.788;2023-04-15T03:53:31;13;12;
79272;PMS5003;68718;-19.302;146.788;2023-04-15T03:55:56;12;11;
79272;PMS5003;68718;-19.302;146.788;2023-04-15T03:58:21;13;13;
79272;PMS5003;68718;-19.302;146.788;2023-04-15T04:00:47;14;14;
79272;PMS5003;68718;-19.302;146.788;2023-04-15T04:03:12;13;11;
79272;PMS5003;68718;-19.302;146.788;2023-04-15T04:05:38;12;12;
79272;PMS5003;68718;-19.302;146.788;2023-04-15T04:08:03;13;13;
79272;PMS5003;68718;-19.302;146.788;2023-04-15T04:10:28;12;10;
79272;PMS5003;68718;-19.302;146.788;2023-04-15T04:12:54;8;7;
79272;PMS5003;68718;-19.302;146.788;2023-04-15T04:15:19;9;8;
79272;PMS5003;68718;-19.302;146.788;2023-04-15T04:17:44;10;9;
79272;PMS5003;68718;-19.302;146.788;2023-04-15T04:20:10;7;7;
79272;PMS5003;68718;-19.302;146.788;2023-04-15T04:22:37;9;8;
79272;PMS5003;68718;-19.302;146.788;2023-04-15T04:25:01;8;8;
79272;PMS5003;68718;-19.302;146.788;2023-04-15T04:27:26;13;13;
79272;PMS5003;68718;-19.302;146.788;2023-04-15T04:29:51;9;8;
79272;PMS5003;68718;-19.302;146.788;2023-04-15T04:32:17;10;10;
79272;PMS5003;68718;-19.302;146.788;2023-04-15T04:34:42;9;6;
79272;PMS5003;68718;-19.302;146.788;2023-04-15T04:37:07;11;9;
79272;PMS5003;68718;-19.302;146.788;2023-04-15T04:39:33;8;7;
79272;PMS5003;68718;-19.302;146.788;2023-04-15T04:41:58;7;7;
79272;PMS5003;68718;-19.302;146.788;2023-04-15T04:44:24;5;5;
79272;PMS5003;68718;-19.302;146.788;2023-04-15T04:46:49;4;4;
79272;PMS5003;68718;-19.302;146.788;2023-04-15T04:49:14;7;7;
79272;PMS5003;68718;-19.302;146.788;2023-04-15T04:51:40;8;7;
79272;PMS5003;68718;-19.302;146.788;2023-04-15T04:54:05;8;8;
79272;PMS5003;68718;-19.302;146.788;2023-04-15T04:56:30;10;10;
79272;PMS5003;68718;-19.302;146.788;2023-04-15T04:58:56;15;15;
79272;PMS5003;68718;-19.302;146.788;2023-04-15T05:01:21;13;13;
79272;PMS5003;68718;-19.302;146.788;2023-04-15T05:03:47;10;10;
79272;PMS5003;68718;-19.302;146.788;2023-04-15T05:06:12;16;14;
79272;PMS5003;68718;-19.302;146.788;2023-04-15T05:08:37;10;9;
79272;PMS5003;68718;-19.302;146.788;2023-04-15T05:11:03;11;10;
79272;PMS5003;68718;-19.302;146.788;2023-04-15T05:13:28;9;9;
79272;PMS5003;68718;-19.302;146.788;2023-04-15T05:15:53;11;11;
79272;PMS5003;68718;-19.302;146.788;2023-04-15T05:18:19;12;12;
79272;PMS5003;68718;-19.302;146.788;2023-04-15T05:20:44;14;14;
79272;PMS5003;68718;-19.302;146.788;2023-04-15T05:23:10;12;11;
79272;PMS5003;68718;-19.302;146.788;2023-04-15T05:25:34;12;12;
79272;PMS5003;68718;-19.302;146.788;2023-04-15T05:27:59;14;14;
79272;PMS5003;68718;-19.302;146.788;2023-04-15T05:30:25;7;7;
79272;PMS5003;68718;-19.302;146.788;2023-04-15T05:32:50;12;10;
79272;PMS5003;68718;-19.302;146.788;2023-04-15T05:35:16;10;10;
79272;PMS5003;68718;-19.302;146.788;2023-04-15T05:37:41;8;8;
79272;PMS5003;68718;-19.302;146.788;2023-04-15T05:40:06;7;7;
79272;PMS5003;68718;-19.302;146.788;2023-04-15T05:44:57;8;7;
79272;PMS5003;68718;-19.302;146.788;2023-04-15T05:47:23;11;10;
79272;PMS5003;68718;-19.302;146.788;2023-04-15T05:49:48;11;11;
79272;PMS5003;68718;-19.302;146.788;2023-04-15T05:52:13;6;6;
79272;PMS5003;68718;-19.302;146.788;2023-04-15T05:54:38;7;7;
79272;PMS5003;68718;-19.302;146.788;2023-04-15T05:57:04;6;6;
79272;PMS5003;68718;-19.302;146.788;2023-04-15T05:59:29;8;8;
79272;PMS5003;68718;-19.302;146.788;2023-04-15T06:01:55;7;7;
79272;PMS5003;68718;-19.302;146.788;2023-04-15T06:04:20;5;5;
79272;PMS5003;68718;-19.302;146.788;2023-04-15T06:06:45;7;6;
79272;PMS5003;68718;-19.302;146.788;2023-04-15T06:09:11;7;7;
79272;PMS5003;68718;-19.302;146.788;2023-04-15T06:11:36;10;9;
79272;PMS5003;68718;-19.302;146.788;2023-04-15T06:14:01;9;7;
79272;PMS5003;68718;-19.302;146.788;2023-04-15T06:16:27;9;8;
79272;PMS5003;68718;-19.302;146.788;2023-04-15T06:18:52;6;5;
79272;PMS5003;68718;-19.302;146.788;2023-04-15T06:21:17;5;5;
79272;PMS5003;68718;-19.302;146.788;2023-04-15T06:23:43;2;2;
79272;PMS5003;68718;-19.302;146.788;2023-04-15T06:26:08;4;4;
79272;PMS5003;68718;-19.302;146.788;2023-04-15T06:28:34;3;3;
79272;PMS5003;68718;-19.302;146.788;2023-04-15T06:30:59;6;5;
79272;PMS5003;68718;-19.302;146.788;2023-04-15T06:33:24;4;4;
79272;PMS5003;68718;-19.302;146.788;2023-04-15T06:35:49;5;5;
79272;PMS5003;68718;-19.302;146.788;2023-04-15T06:38:15;6;4;
79272;PMS5003;68718;-19.302;146.788;2023-04-15T06:40:40;3;3;
79272;PMS5003;68718;-19.302;146.788;2023-04-15T06:43:06;6;6;
79272;PMS5003;68718;-19.302;146.788;2023-04-15T06:45:31;9;9;
79272;PMS5003;68718;-19.302;146.788;2023-04-15T06:47:56;4;4;
79272;PMS5003;68718;-19.302;146.788;2023-04-15T06:50:22;5;5;
79272;PMS5003;68718;-19.302;146.788;2023-04-15T06:52:47;6;6;
79272;PMS5003;68718;-19.302;146.788;2023-04-15T06:55:13;10;10;
79272;PMS5003;68718;-19.302;146.788;2023-04-15T06:57:38;5;5;
79272;PMS5003;68718;-19.302;146.788;2023-04-15T07:00:04;5;5;
79272;PMS5003;68718;-19.302;146.788;2023-04-15T07:02:28;4;4;
79272;PMS5003;68718;-19.302;146.788;2023-04-15T07:04:54;5;4;
79272;PMS5003;68718;-19.302;146.788;2023-04-15T07:07:19;5;5;
79272;PMS5003;68718;-19.302;146.788;2023-04-15T07:09:44;6;6;
79272;PMS5003;68718;-19.302;146.788;2023-04-15T07:12:10;5;5;
79272;PMS5003;68718;-19.302;146.788;2023-04-15T07:14:35;5;5;
79272;PMS5003;68718;-19.302;146.788;2023-04-15T07:17:00;8;8;
79272;PMS5003;68718;-19.302;146.788;2023-04-15T07:19:25;5;4;
79272;PMS5003;68718;-19.302;146.788;2023-04-15T07:21:51;3;3;
79272;PMS5003;68718;-19.302;146.788;2023-04-15T07:24:16;5;5;
79272;PMS5003;68718;-19.302;146.788;2023-04-15T07:26:42;3;3;
79272;PMS5003;68718;-19.302;146.788;2023-04-15T07:29:07;4;4;
79272;PMS5003;68718;-19.302;146.788;2023-04-15T07:31:32;2;2;
79272;PMS5003;68718;-19.302;146.788;2023-04-15T07:33:57;2;2;
79272;PMS5003;68718;-19.302;146.788;2023-04-15T07:36:22;3;3;
79272;PMS5003;68718;-19.302;146.788;2023-04-15T07:38:48;8;8;
79272;PMS5003;68718;-19.302;146.788;2023-04-15T07:41:13;7;7;
79272;PMS5003;68718;-19.302;146.788;2023-04-15T07:43:39;4;3;
79272;PMS5003;68718;-19.302;146.788;2023-04-15T07:46:04;4;3;
79272;PMS5003;68718;-19.302;146.788;2023-04-15T07:48:29;2;2;
79272;PMS5003;68718;-19.302;146.788;2023-04-15T07:50:55;3;3;
79272;PMS5003;68718;-19.302;146.788;2023-04-15T07:53:21;6;5;
79272;PMS5003;68718;-19.302;146.788;2023-04-15T07:55:46;4;3;
79272;PMS5003;68718;-19.302;146.788;2023-04-15T07:58:12;4;4;
79272;PMS5003;68718;-19.302;146.788;2023-04-15T08:00:37;6;5;
79272;PMS5003;68718;-19.302;146.788;2023-04-15T08:03:04;3;3;
79272;PMS5003;68718;-19.302;146.788;2023-04-15T08:05:28;3;3;
79272;PMS5003;68718;-19.302;146.788;2023-04-15T08:07:53;4;4;
79272;PMS5003;68718;-19.302;146.788;2023-04-15T08:10:20;3;3;
79272;PMS5003;68718;-19.302;146.788;2023-04-15T08:12:44;3;3;
79272;PMS5003;68718;-19.302;146.788;2023-04-15T08:15:10;3;3;
79272;PMS5003;68718;-19.302;146.788;2023-04-15T08:17:36;3;3;
79272;PMS5003;68718;-19.302;146.788;2023-04-15T08:20:00;1;1;
79272;PMS5003;68718;-19.302;146.788;2023-04-15T08:22:26;3;3;
79272;PMS5003;68718;-19.302;146.788;2023-04-15T08:24:51;3;3;
79272;PMS5003;68718;-19.302;146.788;2023-04-15T08:27:16;8;7;
79272;PMS5003;68718;-19.302;146.788;2023-04-15T08:29:42;6;6;
79272;PMS5003;68718;-19.302;146.788;2023-04-15T08:32:07;7;7;
79272;PMS5003;68718;-19.302;146.788;2023-04-15T08:34:32;5;5;
79272;PMS5003;68718;-19.302;146.788;2023-04-15T08:36:58;6;6;
79272;PMS5003;68718;-19.302;146.788;2023-04-15T08:39:23;11;9;
79272;PMS5003;68718;-19.302;146.788;2023-04-15T08:41:50;6;6;
79272;PMS5003;68718;-19.302;146.788;2023-04-15T08:44:14;7;7;
79272;PMS5003;68718;-19.302;146.788;2023-04-15T08:46:39;6;5;
79272;PMS5003;68718;-19.302;146.788;2023-04-15T08:49:06;19;18;
79272;PMS5003;68718;-19.302;146.788;2023-04-15T08:51:35;34;34;
79272;PMS5003;68718;-19.302;146.788;2023-04-15T08:53:56;19;19;
79272;PMS5003;68718;-19.302;146.788;2023-04-15T08:56:22;12;12;
79272;PMS5003;68718;-19.302;146.788;2023-04-15T08:58:48;56;55;
79272;PMS5003;68718;-19.302;146.788;2023-04-15T09:01:14;48;47;
79272;PMS5003;68718;-19.302;146.788;2023-04-15T09:03:39;109;108;
79272;PMS5003;68718;-19.302;146.788;2023-04-15T09:06:04;30;30;
79272;PMS5003;68718;-19.302;146.788;2023-04-15T09:08:28;17;17;
79272;PMS5003;68718;-19.302;146.788;2023-04-15T09:10:55;22;22;
79272;PMS5003;68718;-19.302;146.788;2023-04-15T09:13:21;43;42;
79272;PMS5003;68718;-19.302;146.788;2023-04-15T09:15:46;16;16;
79272;PMS5003;68718;-19.302;146.788;2023-04-15T09:20:38;4;4;
79272;PMS5003;68718;-19.302;146.788;2023-04-15T09:23:02;3;3;
79272;PMS5003;68718;-19.302;146.788;2023-04-15T09:25:28;3;3;
79272;PMS5003;68718;-19.302;146.788;2023-04-15T09:27:53;4;4;
79272;PMS5003;68718;-19.302;146.788;2023-04-15T09:30:18;2;2;
79272;PMS5003;68718;-19.302;146.788;2023-04-15T09:32:48;4;3;
79272;PMS5003;68718;-19.302;146.788;2023-04-15T09:35:10;4;4;
79272;PMS5003;68718;-19.302;146.788;2023-04-15T09:37:35;3;3;
79272;PMS5003;68718;-19.302;146.788;2023-04-15T09:39:59;3;2;
79272;PMS5003;68718;-19.302;146.788;2023-04-15T09:42:25;4;3;
79272;PMS5003;68718;-19.302;146.788;2023-04-15T09:44:50;2;2;
79272;PMS5003;68718;-19.302;146.788;2023-04-15T09:49:42;9;9;
79272;PMS5003;68718;-19.302;146.788;2023-04-15T09:52:06;9;9;
79272;PMS5003;68718;-19.302;146.788;2023-04-15T09:54:33;3;3;
79272;PMS5003;68718;-19.302;146.788;2023-04-15T09:57:03;3;3;
79272;PMS5003;68718;-19.302;146.788;2023-04-15T09:59:22;3;3;
79272;PMS5003;68718;-19.302;146.788;2023-04-15T10:01:47;3;3;
79272;PMS5003;68718;-19.302;146.788;2023-04-15T10:04:13;3;3;
79272;PMS5003;68718;-19.302;146.788;2023-04-15T10:06:39;2;2;
79272;PMS5003;68718;-19.302;146.788;2023-04-15T10:09:03;4;4;
79272;PMS5003;68718;-19.302;146.788;2023-04-15T10:11:29;2;2;
79272;PMS5003;68718;-19.302;146.788;2023-04-15T10:13:56;3;3;
79272;PMS5003;68718;-19.302;146.788;2023-04-15T10:16:20;3;3;
79272;PMS5003;68718;-19.302;146.788;2023-04-15T10:18:46;3;3;
79272;PMS5003;68718;-19.302;146.788;2023-04-15T10:21:11;3;3;
79272;PMS5003;68718;-19.302;146.788;2023-04-15T10:23:37;1;1;
79272;PMS5003;68718;-19.302;146.788;2023-04-15T10:26:01;4;3;
79272;PMS5003;68718;-19.302;146.788;2023-04-15T10:28:27;3;2;
79272;PMS5003;68718;-19.302;146.788;2023-04-15T10:30:51;2;2;
79272;PMS5003;68718;-19.302;146.788;2023-04-15T10:33:17;4;4;
79272;PMS5003;68718;-19.302;146.788;2023-04-15T10:35:42;4;4;
79272;PMS5003;68718;-19.302;146.788;2023-04-15T10:40:33;3;2;
79272;PMS5003;68718;-19.302;146.788;2023-04-15T10:43:01;2;2;
79272;PMS5003;68718;-19.302;146.788;2023-04-15T10:45:25;7;7;
79272;PMS5003;68718;-19.302;146.788;2023-04-15T10:47:51;8;7;
79272;PMS5003;68718;-19.302;146.788;2023-04-15T10:50:14;8;8;
79272;PMS5003;68718;-19.302;146.788;2023-04-15T10:52:39;4;4;
79272;PMS5003;68718;-19.302;146.788;2023-04-15T10:57:34;4;3;
79272;PMS5003;68718;-19.302;146.788;2023-04-15T11:00:08;5;4;
79272;PMS5003;68718;-19.302;146.788;2023-04-15T11:02:25;5;5;
79272;PMS5003;68718;-19.302;146.788;2023-04-15T11:04:52;5;4;
79272;PMS5003;68718;-19.302;146.788;2023-04-15T11:07:12;4;4;
79272;PMS5003;68718;-19.302;146.788;2023-04-15T11:09:37;3;3;
79272;PMS5003;68718;-19.302;146.788;2023-04-15T11:12:04;3;3;
79272;PMS5003;68718;-19.302;146.788;2023-04-15T11:14:28;4;3;
79272;PMS5003;68718;-19.302;146.788;2023-04-15T11:16:55;3;3;
79272;PMS5003;68718;-19.302;146.788;2023-04-15T11:19:19;3;3;
79272;PMS5003;68718;-19.302;146.788;2023-04-15T11:21:44;4;4;
79272;PMS5003;68718;-19.302;146.788;2023-04-15T11:24:09;3;3;
79272;PMS5003;68718;-19.302;146.788;2023-04-15T11:26:38;4;4;
79272;PMS5003;68718;-19.302;146.788;2023-04-15T11:29:00;3;3;
79272;PMS5003;68718;-19.302;146.788;2023-04-15T11:31:27;2;2;
79272;PMS5003;68718;-19.302;146.788;2023-04-15T11:33:54;6;5;
79272;PMS5003;68718;-19.302;146.788;2023-04-15T11:36:16;2;2;
79272;PMS5003;68718;-19.302;146.788;2023-04-15T11:38:43;3;3;
79272;PMS5003;68718;-19.302;146.788;2023-04-15T11:41:08;3;3;
79272;PMS5003;68718;-19.302;146.788;2023-04-15T11:45:58;2;2;
79272;PMS5003;68718;-19.302;146.788;2023-04-15T11:48:24;4;4;
79272;PMS5003;68718;-19.302;146.788;2023-04-15T11:50:55;3;3;
79272;PMS5003;68718;-19.302;146.788;2023-04-15T11:53:18;3;3;
79272;PMS5003;68718;-19.302;146.788;2023-04-15T11:55:41;4;3;
79272;PMS5003;68718;-19.302;146.788;2023-04-15T11:58:08;3;2;
79272;PMS5003;68718;-19.302;146.788;2023-04-15T12:00:32;3;3;
79272;PMS5003;68718;-19.302;146.788;2023-04-15T12:05:22;3;3;
79272;PMS5003;68718;-19.302;146.788;2023-04-15T12:10:13;3;3;
79272;PMS5003;68718;-19.302;146.788;2023-04-15T12:12:38;3;3;
79272;PMS5003;68718;-19.302;146.788;2023-04-15T12:15:04;2;2;
79272;PMS5003;68718;-19.302;146.788;2023-04-15T12:17:29;3;2;
79272;PMS5003;68718;-19.302;146.788;2023-04-15T12:19:55;3;2;
79272;PMS5003;68718;-19.302;146.788;2023-04-15T12:22:22;2;2;
79272;PMS5003;68718;-19.302;146.788;2023-04-15T12:24:45;3;3;
79272;PMS5003;68718;-19.302;146.788;2023-04-15T12:27:11;3;2;
79272;PMS5003;68718;-19.302;146.788;2023-04-15T12:29:36;3;3;
79272;PMS5003;68718;-19.302;146.788;2023-04-15T12:32:05;3;3;
79272;PMS5003;68718;-19.302;146.788;2023-04-15T12:34:28;2;1;
79272;PMS5003;68718;-19.302;146.788;2023-04-15T12:36:53;2;2;
79272;PMS5003;68718;-19.302;146.788;2023-04-15T12:39:17;3;3;
79272;PMS5003;68718;-19.302;146.788;2023-04-15T12:41:42;2;2;
79272;PMS5003;68718;-19.302;146.788;2023-04-15T12:44:08;2;2;
79272;PMS5003;68718;-19.302;146.788;2023-04-15T12:46:33;3;2;
79272;PMS5003;68718;-19.302;146.788;2023-04-15T12:48:58;2;2;
79272;PMS5003;68718;-19.302;146.788;2023-04-15T12:51:24;3;2;
79272;PMS5003;68718;-19.302;146.788;2023-04-15T12:53:48;4;2;
79272;PMS5003;68718;-19.302;146.788;2023-04-15T12:56:15;4;4;
79272;PMS5003;68718;-19.302;146.788;2023-04-15T12:58:39;3;3;
79272;PMS5003;68718;-19.302;146.788;2023-04-15T13:01:05;1;1;
79272;PMS5003;68718;-19.302;146.788;2023-04-15T13:03:30;2;2;
79272;PMS5003;68718;-19.302;146.788;2023-04-15T13:05:55;2;2;
79272;PMS5003;68718;-19.302;146.788;2023-04-15T13:08:21;2;2;
79272;PMS5003;68718;-19.302;146.788;2023-04-15T13:10:47;1;0;
79272;PMS5003;68718;-19.302;146.788;2023-04-15T13:13:12;2;2;
79272;PMS5003;68718;-19.302;146.788;2023-04-15T13:15:38;3;3;
79272;PMS5003;68718;-19.302;146.788;2023-04-15T13:18:03;2;2;
79272;PMS5003;68718;-19.302;146.788;2023-04-15T13:20:28;3;3;
79272;PMS5003;68718;-19.302;146.788;2023-04-15T13:22:53;3;3;
79272;PMS5003;68718;-19.302;146.788;2023-04-15T13:25:19;2;2;
79272;PMS5003;68718;-19.302;146.788;2023-04-15T13:27:44;3;3;
79272;PMS5003;68718;-19.302;146.788;2023-04-15T13:30:10;2;2;
79272;PMS5003;68718;-19.302;146.788;2023-04-15T13:32:35;2;2;
79272;PMS5003;68718;-19.302;146.788;2023-04-15T13:35:01;1;1;
79272;PMS5003;68718;-19.302;146.788;2023-04-15T13:37:26;2;2;
79272;PMS5003;68718;-19.302;146.788;2023-04-15T13:39:51;3;3;
79272;PMS5003;68718;-19.302;146.788;2023-04-15T13:42:17;3;3;
79272;PMS5003;68718;-19.302;146.788;2023-04-15T13:44:42;3;3;
79272;PMS5003;68718;-19.302;146.788;2023-04-15T13:47:07;3;3;
79272;PMS5003;68718;-19.302;146.788;2023-04-15T13:49:33;1;1;
79272;PMS5003;68718;-19.302;146.788;2023-04-15T13:51:58;3;3;
79272;PMS5003;68718;-19.302;146.788;2023-04-15T13:54:24;2;2;
79272;PMS5003;68718;-19.302;146.788;2023-04-15T13:56:49;3;3;
79272;PMS5003;68718;-19.302;146.788;2023-04-15T13:59:15;3;3;
79272;PMS5003;68718;-19.302;146.788;2023-04-15T14:01:39;4;4;
79272;PMS5003;68718;-19.302;146.788;2023-04-15T14:04:05;5;5;
79272;PMS5003;68718;-19.302;146.788;2023-04-15T14:06:31;5;5;
79272;PMS5003;68718;-19.302;146.788;2023-04-15T14:08:56;5;4;
79272;PMS5003;68718;-19.302;146.788;2023-04-15T14:11:21;2;2;
79272;PMS5003;68718;-19.302;146.788;2023-04-15T14:13:46;3;3;
79272;PMS5003;68718;-19.302;146.788;2023-04-15T14:16:12;3;3;
79272;PMS5003;68718;-19.302;146.788;2023-04-15T14:18:38;3;3;
79272;PMS5003;68718;-19.302;146.788;2023-04-15T14:21:03;5;4;
79272;PMS5003;68718;-19.302;146.788;2023-04-15T14:23:28;2;2;
79272;PMS5003;68718;-19.302;146.788;2023-04-15T14:25:53;2;2;
79272;PMS5003;68718;-19.302;146.788;2023-04-15T14:28:19;2;2;
79272;PMS5003;68718;-19.302;146.788;2023-04-15T14:30:44;3;2;
79272;PMS5003;68718;-19.302;146.788;2023-04-15T14:33:09;3;2;
79272;PMS5003;68718;-19.302;146.788;2023-04-15T14:35:35;4;2;
79272;PMS5003;68718;-19.302;146.788;2023-04-15T14:38:00;1;1;
79272;PMS5003;68718;-19.302;146.788;2023-04-15T14:40:26;2;2;
79272;PMS5003;68718;-19.302;146.788;2023-04-15T14:42:52;2;2;
79272;PMS5003;68718;-19.302;146.788;2023-04-15T14:45:16;3;3;
79272;PMS5003;68718;-19.302;146.788;2023-04-15T14:47:42;2;2;
79272;PMS5003;68718;-19.302;146.788;2023-04-15T14:50:07;3;3;
79272;PMS5003;68718;-19.302;146.788;2023-04-15T14:52:32;3;3;
79272;PMS5003;68718;-19.302;146.788;2023-04-15T14:54:58;2;2;
79272;PMS5003;68718;-19.302;146.788;2023-04-15T14:57:23;3;3;
79272;PMS5003;68718;-19.302;146.788;2023-04-15T14:59:48;2;2;
79272;PMS5003;68718;-19.302;146.788;2023-04-15T15:02:13;1;1;
79272;PMS5003;68718;-19.302;146.788;2023-04-15T15:04:39;3;2;
79272;PMS5003;68718;-19.302;146.788;2023-04-15T15:07:05;4;3;
79272;PMS5003;68718;-19.302;146.788;2023-04-15T15:09:30;3;3;
79272;PMS5003;68718;-19.302;146.788;2023-04-15T15:11:55;2;2;
79272;PMS5003;68718;-19.302;146.788;2023-04-15T15:14:21;2;2;
79272;PMS5003;68718;-19.302;146.788;2023-04-15T15:16:46;1;1;
79272;PMS5003;68718;-19.302;146.788;2023-04-15T15:19:13;2;2;
79272;PMS5003;68718;-19.302;146.788;2023-04-15T15:21:37;2;2;
79272;PMS5003;68718;-19.302;146.788;2023-04-15T15:24:02;3;3;
79272;PMS5003;68718;-19.302;146.788;2023-04-15T15:26:28;3;3;
79272;PMS5003;68718;-19.302;146.788;2023-04-15T15:28:53;2;2;
79272;PMS5003;68718;-19.302;146.788;2023-04-15T15:31:19;2;2;
79272;PMS5003;68718;-19.302;146.788;2023-04-15T15:33:44;2;2;
79272;PMS5003;68718;-19.302;146.788;2023-04-15T15:36:11;3;3;
79272;PMS5003;68718;-19.302;146.788;2023-04-15T15:38:36;3;2;
79272;PMS5003;68718;-19.302;146.788;2023-04-15T15:41:00;2;2;
79272;PMS5003;68718;-19.302;146.788;2023-04-15T15:43:27;2;1;
79272;PMS5003;68718;-19.302;146.788;2023-04-15T15:45:52;2;2;
79272;PMS5003;68718;-19.302;146.788;2023-04-15T15:48:16;2;2;
79272;PMS5003;68718;-19.302;146.788;2023-04-15T15:50:42;4;3;
79272;PMS5003;68718;-19.302;146.788;2023-04-15T15:53:07;2;1;
79272;PMS5003;68718;-19.302;146.788;2023-04-15T15:55:36;3;2;
79272;PMS5003;68718;-19.302;146.788;2023-04-15T15:57:58;4;3;
79272;PMS5003;68718;-19.302;146.788;2023-04-15T16:00:24;3;3;
79272;PMS5003;68718;-19.302;146.788;2023-04-15T16:02:49;3;3;